createdAt,value
2018-06-11T00:01:24.663Z,38.03
2018-06-11T00:03:53.036Z,40.87
2018-06-11T00:06:21.330Z,41.60
2018-06-11T00:08:49.667Z,44.97
2018-06-11T00:11:17.991Z,48.43
2018-06-11T00:13:46.363Z,44.03
2018-06-11T00:16:14.683Z,45.50
2018-06-11T00:18:43.007Z,44.60
2018-06-11T00:21:11.347Z,51.03
2018-06-11T00:23:39.663Z,49.50
2018-06-11T00:26:08.008Z,49.73
2018-06-11T00:28:36.342Z,50.63
2018-06-11T00:31:04.686Z,55.60
2018-06-11T00:33:33.119Z,48.70
2018-06-11T00:36:01.531Z,54.83
2018-06-11T00:38:29.839Z,55.57
2018-06-11T00:40:58.175Z,57.80
2018-06-11T00:43:26.499Z,55.50
2018-06-11T00:45:54.870Z,57.80
2018-06-11T00:48:23.195Z,56.43
2018-06-11T00:50:51.539Z,54.97
2018-06-11T00:53:19.942Z,53.80
2018-06-11T00:55:59.767Z,56.90
2018-06-11T00:58:28.095Z,63.80
2018-06-11T01:00:56.443Z,61.07
2018-06-11T01:03:24.766Z,56.23
2018-06-11T01:05:53.100Z,57.47
2018-06-11T01:08:21.146Z,68.20
2018-06-11T01:10:49.493Z,61.90
2018-06-11T01:13:17.819Z,59.20
2018-06-11T01:15:46.167Z,61.63
2018-06-11T01:18:14.487Z,63.27
2018-06-11T01:20:42.832Z,57.60
2018-06-11T01:23:11.155Z,61.57
2018-06-11T01:25:39.503Z,61.87
2018-06-11T01:28:08.303Z,63.27
2018-06-11T01:30:36.651Z,65.63
2018-06-11T01:33:04.995Z,62.37
2018-06-11T01:35:33.335Z,63.03
2018-06-11T01:38:01.654Z,62.00
2018-06-11T01:40:29.991Z,61.50
2018-06-11T01:42:58.319Z,62.93
2018-06-11T01:45:26.659Z,66.30
2018-06-11T01:47:55.004Z,70.17
2018-06-11T01:50:23.343Z,64.17
2018-06-11T01:52:51.663Z,71.73
2018-06-11T01:55:20.004Z,68.97
2018-06-11T01:57:48.319Z,70.47
2018-06-11T02:00:16.655Z,67.97
2018-06-11T02:02:44.974Z,67.00
2018-06-11T02:05:13.331Z,67.60
2018-06-11T02:07:41.651Z,67.60
2018-06-11T02:10:09.990Z,65.57
2018-06-11T02:12:38.312Z,65.40
2018-06-11T02:15:06.719Z,67.80
2018-06-11T02:17:35.035Z,66.33
2018-06-11T02:20:03.380Z,66.87
2018-06-11T02:22:31.703Z,61.97
2018-06-11T02:25:00.095Z,65.33
2018-06-11T02:27:28.427Z,66.97
2018-06-11T02:29:56.754Z,65.40
2018-06-11T02:32:25.110Z,74.57
2018-06-11T02:34:53.431Z,65.80
2018-06-11T02:37:21.788Z,73.43
2018-06-11T02:39:50.111Z,69.00
2018-06-11T02:42:18.456Z,76.80
2018-06-11T02:44:46.784Z,73.43
2018-06-11T02:47:15.151Z,76.10
2018-06-11T02:49:43.470Z,75.07
2018-06-11T02:52:11.804Z,78.27
2018-06-11T02:54:39.870Z,72.67
2018-06-11T02:57:08.207Z,68.83
2018-06-11T02:59:36.527Z,74.43
2018-06-11T03:02:04.855Z,71.20
2018-06-11T03:04:33.175Z,73.10
2018-06-11T03:07:01.515Z,77.03
2018-06-11T03:09:29.839Z,73.63
2018-06-11T03:11:58.183Z,73.47
2018-06-11T03:14:26.511Z,71.43
2018-06-11T03:16:54.855Z,71.97
2018-06-11T03:19:23.175Z,74.70
2018-06-11T03:21:51.510Z,77.63
2018-06-11T03:24:19.831Z,76.60
2018-06-11T03:26:48.171Z,81.63
2018-06-11T03:29:16.482Z,67.83
2018-06-11T03:31:44.823Z,72.50
2018-06-11T03:34:13.147Z,76.40
2018-06-11T03:36:41.547Z,76.43
2018-06-11T03:39:09.970Z,78.77
2018-06-11T03:41:38.303Z,76.53
2018-06-11T03:44:06.626Z,76.60
2018-06-11T03:46:34.987Z,74.20
2018-06-11T03:49:03.303Z,76.53
2018-06-11T03:51:31.639Z,76.67
2018-06-11T03:53:59.967Z,84.87
2018-06-11T03:56:28.303Z,80.77
2018-06-11T03:58:56.627Z,74.70
2018-06-11T04:01:24.967Z,78.47
2018-06-11T04:03:53.298Z,72.23
2018-06-11T04:06:21.663Z,71.17
2018-06-11T04:08:49.975Z,80.03
2018-06-11T04:11:18.319Z,77.07
2018-06-11T04:13:46.634Z,77.83
2018-06-11T04:16:14.972Z,72.07
2018-06-11T04:18:43.295Z,75.47
2018-06-11T04:21:11.635Z,79.90
2018-06-11T04:23:39.958Z,68.63
2018-06-11T04:26:08.287Z,69.37
2018-06-11T04:28:36.610Z,63.17
2018-06-11T04:31:04.931Z,70.97
2018-06-11T04:33:33.280Z,80.13
2018-06-11T04:36:01.611Z,65.63
2018-06-11T04:38:29.942Z,78.57
2018-06-11T04:40:58.271Z,68.17
2018-06-11T04:43:26.605Z,70.53
2018-06-11T04:45:54.931Z,73.17
2018-06-11T04:48:23.303Z,74.97
2018-06-11T04:50:51.672Z,77.40
2018-06-11T04:53:20.027Z,66.47
2018-06-11T04:55:48.359Z,69.57
2018-06-11T04:58:16.710Z,63.10
2018-06-11T05:00:45.044Z,62.00
2018-06-11T05:03:13.480Z,61.87
2018-06-11T05:05:41.815Z,67.63
2018-06-11T05:08:10.190Z,67.80
2018-06-11T05:10:38.507Z,58.60
2018-06-11T05:13:06.855Z,63.70
2018-06-11T05:15:35.175Z,62.97
2018-06-11T05:18:03.543Z,67.50
2018-06-11T05:20:31.959Z,66.57
2018-06-11T05:23:00.303Z,68.80
2018-06-11T05:25:28.633Z,63.20
2018-06-11T05:27:57.423Z,66.83
2018-06-11T05:30:25.747Z,65.70
2018-06-11T05:32:54.097Z,64.33
2018-06-11T05:35:22.154Z,63.00
2018-06-11T05:37:50.602Z,61.50
2018-06-11T05:40:19.033Z,60.00
2018-06-11T05:42:47.322Z,56.10
2018-06-11T05:45:15.655Z,59.00
2018-06-11T05:47:44.015Z,54.13
2018-06-11T05:50:12.351Z,59.40
2018-06-11T05:52:40.702Z,53.17
2018-06-11T05:55:09.054Z,53.00
2018-06-11T05:57:37.399Z,58.87
2018-06-11T06:00:05.755Z,57.60
2018-06-11T06:02:34.105Z,59.60
2018-06-11T06:05:02.443Z,52.03
2018-06-11T06:07:30.790Z,54.43
2018-06-11T06:09:59.119Z,51.90
2018-06-11T06:12:27.466Z,49.93
2018-06-11T06:14:55.794Z,47.50
2018-06-11T06:17:24.139Z,47.53
2018-06-11T06:19:52.187Z,46.97
2018-06-11T06:22:20.537Z,43.97
2018-06-11T06:24:48.864Z,47.40
2018-06-11T06:27:17.229Z,46.30
2018-06-11T06:29:45.555Z,46.67
2018-06-11T06:32:13.883Z,42.27
2018-06-11T06:34:42.009Z,51.83
2018-06-11T06:37:10.417Z,57.33
2018-06-11T06:39:38.768Z,50.90
2018-06-11T06:42:07.101Z,50.97
2018-06-11T06:44:35.447Z,46.90
2018-06-11T06:47:03.949Z,54.47
2018-06-11T06:49:32.294Z,46.97
2018-06-11T06:52:00.624Z,42.33
2018-06-11T06:54:28.975Z,41.90
2018-06-11T06:56:57.335Z,40.90
2018-06-11T06:59:25.680Z,44.30
2018-06-11T07:01:53.735Z,41.43
2018-06-11T07:04:22.074Z,44.90
2018-06-11T07:06:50.404Z,43.67
2018-06-11T07:09:18.753Z,47.30
2018-06-11T07:11:47.091Z,44.37
2018-06-11T07:14:15.459Z,48.73
2018-06-11T07:16:43.786Z,42.43
2018-06-11T07:19:12.127Z,45.90
2018-06-11T07:21:40.451Z,45.03
2018-06-11T07:24:08.824Z,41.97
2018-06-11T07:26:37.155Z,44.33
2018-06-11T07:29:05.500Z,38.90
2018-06-11T07:31:33.859Z,39.17
2018-06-11T07:34:02.223Z,36.10
2018-06-11T07:36:30.691Z,40.60
2018-06-11T07:38:59.035Z,39.43
2018-06-11T07:41:27.359Z,34.97
2018-06-11T07:43:55.707Z,35.17
2018-06-11T07:46:24.039Z,35.20
2018-06-11T07:48:52.389Z,30.67
2018-06-11T07:51:20.711Z,32.63
2018-06-11T07:53:49.050Z,36.00
2018-06-11T07:56:17.358Z,39.23
2018-06-11T07:58:45.695Z,32.60
2018-06-11T08:01:14.008Z,37.27
2018-06-11T08:03:42.345Z,37.00
2018-06-11T08:06:10.667Z,33.57
2018-06-11T08:08:39.015Z,34.53
2018-06-11T08:11:07.331Z,30.27
2018-06-11T08:13:35.686Z,36.17
2018-06-11T08:16:04.008Z,32.27
2018-06-11T08:18:32.343Z,34.13
2018-06-11T08:21:00.683Z,29.43
2018-06-11T08:23:29.023Z,27.30
2018-06-11T08:25:57.347Z,32.13
2018-06-11T08:28:25.678Z,34.33
2018-06-11T08:30:54.011Z,32.80
2018-06-11T08:33:22.337Z,26.37
2018-06-11T08:35:50.686Z,28.73
2018-06-11T08:38:19.018Z,28.27
2018-06-11T08:40:51.263Z,31.80
2018-06-11T08:43:19.763Z,29.03
2018-06-11T08:45:48.111Z,30.57
2018-06-11T08:48:16.459Z,30.90
2018-06-11T08:50:44.823Z,31.43
2018-06-11T08:53:13.147Z,32.03
2018-06-11T08:55:41.491Z,30.83
2018-06-11T08:58:09.806Z,28.70
2018-06-11T09:00:38.163Z,26.57
2018-06-11T09:03:06.545Z,31.13
2018-06-11T09:05:34.867Z,28.10
2018-06-11T09:08:03.196Z,25.83
2018-06-11T09:10:31.543Z,26.53
2018-06-11T09:12:59.872Z,29.40
2018-06-11T09:15:28.224Z,31.93
2018-06-11T09:17:56.589Z,28.43
2018-06-11T09:20:24.919Z,27.27
2018-06-11T09:22:53.250Z,28.60
2018-06-11T09:25:21.594Z,27.53
2018-06-11T09:27:49.923Z,28.07
2018-06-11T09:30:18.276Z,30.10
2018-06-11T09:32:46.607Z,27.93
2018-06-11T09:35:14.959Z,27.70
2018-06-11T09:37:43.287Z,25.10
2018-06-11T09:40:11.679Z,22.60
2018-06-11T09:42:40.012Z,24.97
2018-06-11T09:45:08.367Z,26.03
2018-06-11T09:47:36.714Z,24.63
2018-06-11T09:50:05.127Z,26.97
2018-06-11T09:52:33.454Z,24.93
2018-06-11T09:55:01.803Z,22.43
2018-06-11T09:57:30.137Z,25.20
2018-06-11T09:59:58.486Z,27.43
2018-06-11T10:02:26.530Z,24.07
2018-06-11T10:04:54.879Z,24.43
2018-06-11T10:07:23.203Z,25.87
2018-06-11T10:09:51.547Z,25.93
2018-06-11T10:12:20.031Z,24.40
2018-06-11T10:14:48.315Z,22.70
2018-06-11T10:17:16.643Z,24.20
2018-06-11T10:19:44.995Z,21.53
2018-06-11T10:22:13.319Z,23.80
2018-06-11T10:24:41.683Z,18.43
2018-06-11T10:27:10.008Z,22.53
2018-06-11T10:29:38.359Z,22.63
2018-06-11T10:32:06.715Z,21.83
2018-06-11T10:34:35.043Z,21.70
2018-06-11T10:37:03.411Z,21.23
2018-06-11T10:39:31.750Z,25.13
2018-06-11T10:42:00.095Z,21.93
2018-06-11T10:44:28.447Z,22.07
2018-06-11T10:46:56.938Z,22.27
2018-06-11T10:49:25.262Z,20.63
2018-06-11T10:51:53.746Z,18.97
2018-06-11T10:54:22.089Z,20.10
2018-06-11T10:56:50.440Z,18.60
2018-06-11T10:59:18.779Z,20.27
2018-06-11T11:01:47.147Z,19.83
2018-06-11T11:04:15.477Z,22.93
2018-06-11T11:06:43.843Z,23.73
2018-06-11T11:09:12.244Z,20.13
2018-06-11T11:11:40.643Z,20.73
2018-06-11T11:14:09.028Z,20.87
2018-06-11T11:16:37.391Z,17.20
2018-06-11T11:19:05.979Z,17.53
2018-06-11T11:21:34.357Z,17.13
2018-06-11T11:24:02.747Z,18.47
2018-06-11T11:26:31.075Z,15.53
2018-06-11T11:28:59.436Z,21.37
2018-06-11T11:31:27.783Z,17.60
2018-06-11T11:33:56.135Z,17.77
2018-06-11T11:36:24.483Z,16.20
2018-06-11T11:38:52.816Z,16.00
2018-06-11T11:41:21.167Z,16.67
2018-06-11T11:43:49.522Z,15.27
2018-06-11T11:46:17.905Z,13.67
2018-06-11T11:48:46.255Z,14.40
2018-06-11T11:51:15.260Z,18.07
2018-06-11T11:53:43.707Z,14.57
2018-06-11T11:56:12.168Z,14.67
2018-06-11T11:58:40.491Z,15.30
2018-06-11T12:01:08.843Z,16.63
2018-06-11T12:03:37.238Z,13.77
2018-06-11T12:06:05.586Z,13.27
2018-06-11T12:08:33.999Z,14.27
2018-06-11T12:11:02.359Z,12.07
2018-06-11T12:13:30.667Z,14.93
2018-06-11T12:15:58.995Z,11.80
2018-06-11T12:18:27.327Z,11.73
2018-06-11T12:20:55.655Z,9.53
2018-06-11T12:23:24.044Z,9.23
2018-06-11T12:25:52.392Z,10.17
2018-06-11T12:28:20.719Z,11.10
2018-06-11T12:30:49.051Z,12.83
2018-06-11T12:33:17.402Z,13.23
2018-06-11T12:35:45.739Z,15.03
2018-06-11T12:38:14.091Z,12.83
2018-06-11T12:40:42.423Z,15.00
2018-06-11T12:43:10.764Z,13.00
2018-06-11T12:45:39.096Z,10.60
2018-06-11T12:48:07.461Z,14.73
2018-06-11T12:50:35.919Z,13.87
2018-06-11T12:53:04.283Z,12.63
2018-06-11T12:55:32.628Z,12.53
2018-06-11T12:58:01.504Z,13.57
2018-06-11T13:00:29.816Z,9.90
2018-06-11T13:02:58.167Z,12.50
2018-06-11T13:05:26.560Z,10.47
2018-06-11T13:07:54.906Z,12.00
2018-06-11T13:10:23.255Z,10.00
2018-06-11T13:12:51.603Z,10.57
2018-06-11T13:15:19.931Z,11.67
2018-06-11T13:17:48.379Z,9.60
2018-06-11T13:20:16.707Z,9.90
2018-06-11T13:22:45.047Z,12.63
2018-06-11T13:25:13.381Z,9.57
2018-06-11T13:27:41.723Z,10.43
2018-06-11T13:30:10.059Z,12.10
2018-06-11T13:32:38.415Z,10.93
2018-06-11T13:35:06.769Z,11.20
2018-06-11T13:37:35.117Z,12.00
2018-06-11T13:40:03.485Z,10.17
2018-06-11T13:42:31.855Z,11.37
2018-06-11T13:45:00.184Z,10.70
2018-06-11T13:47:28.551Z,11.13
2018-06-11T13:49:56.899Z,13.87
2018-06-11T13:52:25.243Z,11.80
2018-06-11T13:54:53.571Z,11.40
2018-06-11T13:57:21.918Z,10.10
2018-06-11T13:59:50.365Z,10.23
2018-06-11T14:02:18.710Z,8.43
2018-06-11T14:04:47.035Z,9.83
2018-06-11T14:07:15.387Z,11.60
2018-06-11T14:09:43.720Z,9.50
2018-06-11T14:12:12.055Z,8.63
2018-06-11T14:14:40.387Z,9.37
2018-06-11T14:17:08.736Z,10.33
2018-06-11T14:19:37.067Z,11.03
2018-06-11T14:22:05.419Z,8.50
2018-06-11T14:24:33.764Z,8.47
2018-06-11T14:27:02.104Z,7.10
2018-06-11T14:29:30.426Z,11.93
2018-06-11T14:31:58.771Z,8.73
2018-06-11T14:34:27.095Z,10.60
2018-06-11T14:36:55.431Z,11.00
2018-06-11T14:39:23.807Z,9.60
2018-06-11T14:41:51.850Z,13.37
2018-06-11T14:44:20.195Z,10.40
2018-06-11T14:46:48.535Z,13.93
2018-06-11T14:49:16.883Z,13.00
2018-06-11T14:51:45.207Z,11.93
2018-06-11T14:54:13.539Z,12.40
2018-06-11T14:56:41.858Z,10.30
2018-06-11T14:59:10.216Z,9.40
2018-06-11T15:01:38.531Z,10.37
2018-06-11T15:04:06.875Z,11.80
2018-06-11T15:06:35.196Z,12.93
2018-06-11T15:09:04.055Z,12.43
2018-06-11T15:11:32.375Z,12.47
2018-06-11T15:14:00.754Z,15.07
2018-06-11T15:16:29.059Z,20.60
2018-06-11T15:18:57.418Z,14.03
2018-06-11T15:21:25.754Z,13.87
2018-06-11T15:23:54.095Z,14.53
2018-06-11T15:26:22.422Z,16.20
2018-06-11T15:28:50.769Z,16.20
2018-06-11T15:31:19.091Z,18.10
2018-06-11T15:33:47.422Z,16.93
2018-06-11T15:36:15.744Z,15.50
2018-06-11T15:38:44.091Z,15.27
2018-06-11T15:41:12.419Z,15.50
2018-06-11T15:43:40.767Z,14.70
2018-06-11T15:46:09.127Z,17.60
2018-06-11T15:48:37.463Z,15.43
2018-06-11T15:51:05.896Z,14.07
2018-06-11T15:53:34.243Z,12.50
2018-06-11T15:56:02.612Z,22.10
2018-06-11T15:58:30.970Z,13.60
2018-06-11T16:00:59.321Z,15.57
2018-06-11T16:03:27.671Z,13.03
2018-06-11T16:05:56.003Z,15.80
2018-06-11T16:08:24.383Z,18.70
2018-06-11T16:10:52.727Z,17.57
2018-06-11T16:13:21.098Z,14.80
2018-06-11T16:15:49.428Z,16.50
2018-06-11T16:18:17.772Z,21.60
2018-06-11T16:20:46.136Z,16.03
2018-06-11T16:23:14.528Z,15.97
2018-06-11T16:25:42.879Z,14.40
2018-06-11T16:28:11.225Z,12.63
2018-06-11T16:30:39.574Z,10.70
2018-06-11T16:33:07.935Z,10.53
2018-06-11T16:35:36.267Z,10.60
2018-06-11T16:38:04.622Z,10.10
2018-06-11T16:40:33.109Z,7.83
2018-06-11T16:43:02.001Z,8.70
2018-06-11T16:45:30.354Z,10.80
2018-06-11T16:47:58.695Z,10.63
2018-06-11T16:50:27.055Z,10.37
2018-06-11T16:52:55.381Z,15.07
2018-06-11T16:55:23.829Z,10.70
2018-06-11T16:57:52.259Z,10.87
2018-06-11T17:00:20.591Z,15.50
2018-06-11T17:02:48.966Z,9.73
2018-06-11T17:05:17.311Z,13.77
2018-06-11T17:07:45.627Z,11.93
2018-06-11T17:10:14.003Z,10.70
2018-06-11T17:12:42.339Z,9.70
2018-06-11T17:15:10.667Z,8.97
2018-06-11T17:17:39.027Z,11.17
2018-06-11T17:20:07.439Z,9.83
2018-06-11T17:22:35.763Z,9.13
2018-06-11T17:25:04.150Z,8.97
2018-06-11T17:27:32.467Z,9.97
2018-06-11T17:30:00.862Z,9.70
2018-06-11T17:32:29.197Z,15.73
2018-06-11T17:34:57.536Z,8.77
2018-06-11T17:37:25.876Z,10.17
2018-06-11T17:39:54.211Z,9.03
2018-06-11T17:42:22.552Z,10.80
2018-06-11T17:44:50.913Z,9.73
2018-06-11T17:47:19.263Z,8.70
2018-06-11T17:49:47.602Z,9.70
2018-06-11T17:52:15.929Z,11.13
2018-06-11T17:54:44.316Z,11.10
2018-06-11T17:57:12.745Z,8.60
2018-06-11T17:59:41.071Z,11.30
2018-06-11T18:02:09.126Z,10.10
2018-06-11T18:04:37.531Z,9.73
2018-06-11T18:07:05.877Z,11.17
2018-06-11T18:09:34.207Z,10.30
2018-06-11T18:12:02.527Z,10.10
2018-06-11T18:14:30.887Z,8.77
2018-06-11T18:16:59.213Z,8.80
2018-06-11T18:19:27.571Z,11.10
2018-06-11T18:21:55.904Z,12.67
2018-06-11T18:24:24.297Z,8.73
2018-06-11T18:26:52.631Z,9.13
2018-06-11T18:29:20.959Z,9.77
2018-06-11T18:31:49.298Z,11.60
2018-06-11T18:34:17.659Z,10.17
2018-06-11T18:36:46.151Z,10.53
2018-06-11T18:39:14.464Z,11.13
2018-06-11T18:41:42.799Z,8.60
2018-06-11T18:44:11.131Z,9.60
2018-06-11T18:46:39.483Z,8.03
2018-06-11T18:49:07.859Z,10.83
2018-06-11T18:51:36.300Z,8.77
2018-06-11T18:54:04.615Z,8.17
2018-06-11T18:56:33.047Z,7.87
2018-06-11T18:59:01.355Z,9.13
2018-06-11T19:01:29.823Z,8.00
2018-06-11T19:03:58.205Z,7.63
2018-06-11T19:06:26.578Z,9.30
2018-06-11T19:08:54.959Z,8.80
2018-06-11T19:11:23.407Z,9.43
2018-06-11T19:13:51.727Z,14.97
2018-06-11T19:16:20.186Z,9.87
2018-06-11T19:18:48.518Z,10.43
2018-06-11T19:21:22.343Z,10.13
2018-06-11T19:23:50.759Z,9.07
2018-06-11T19:26:19.171Z,10.03
2018-06-11T19:28:47.486Z,10.17
2018-06-11T19:31:15.835Z,9.63
2018-06-11T19:33:44.146Z,9.80
2018-06-11T19:36:12.503Z,11.47
2018-06-11T19:38:40.819Z,8.47
2018-06-11T19:41:09.156Z,11.23
2018-06-11T19:43:37.468Z,13.17
2018-06-11T19:46:06.003Z,11.03
2018-06-11T19:48:34.339Z,11.17
2018-06-11T19:51:02.740Z,10.20
2018-06-11T19:53:31.031Z,10.43
2018-06-11T19:55:59.400Z,10.07
2018-06-11T19:58:27.858Z,10.63
2018-06-11T20:00:56.215Z,8.73
2018-06-11T20:03:24.592Z,10.47
2018-06-11T20:05:52.930Z,8.90
2018-06-11T20:08:21.255Z,10.07
2018-06-11T20:10:49.615Z,9.93
2018-06-11T20:13:17.943Z,11.33
2018-06-11T20:15:46.289Z,10.17
2018-06-11T20:18:14.620Z,10.27
2018-06-11T20:20:42.994Z,23.67
2018-06-11T20:23:11.320Z,8.77
2018-06-11T20:25:39.671Z,9.47
2018-06-11T20:28:08.001Z,8.70
2018-06-11T20:30:36.349Z,10.73
2018-06-11T20:33:04.955Z,13.10
2018-06-11T20:35:33.311Z,9.83
2018-06-11T20:38:01.635Z,8.73
2018-06-11T20:40:30.015Z,11.23
2018-06-11T20:42:58.359Z,10.60
2018-06-11T20:45:26.676Z,9.60
2018-06-11T20:47:55.067Z,10.30
2018-06-11T20:50:23.395Z,10.73
2018-06-11T20:52:51.459Z,10.60
2018-06-11T20:55:19.791Z,10.20
2018-06-11T20:57:48.186Z,11.40
2018-06-11T21:00:16.487Z,9.13
2018-06-11T21:02:44.826Z,8.50
2018-06-11T21:05:13.151Z,11.50
2018-06-11T21:07:41.492Z,9.40
2018-06-11T21:10:09.885Z,11.60
2018-06-11T21:12:38.248Z,11.30
2018-06-11T21:15:06.681Z,10.57
2018-06-11T21:17:35.023Z,9.90
2018-06-11T21:20:03.390Z,9.00
2018-06-11T21:22:31.729Z,9.43
2018-06-11T21:25:00.056Z,13.30
2018-06-11T21:27:28.399Z,12.37
2018-06-11T21:29:56.719Z,10.60
2018-06-11T21:32:25.075Z,11.70
2018-06-11T21:34:53.399Z,12.00
2018-06-11T21:37:21.782Z,10.70
2018-06-11T21:39:50.102Z,9.40
2018-06-11T21:42:18.451Z,11.33
2018-06-11T21:44:46.771Z,11.20
2018-06-11T21:47:15.135Z,10.80
2018-06-11T21:49:43.467Z,13.30
2018-06-11T21:52:11.818Z,13.30
2018-06-11T21:54:40.156Z,13.10
2018-06-11T21:57:08.495Z,10.27
2018-06-11T21:59:36.823Z,10.30
2018-06-11T22:02:05.175Z,11.10
2018-06-11T22:04:33.528Z,10.67
2018-06-11T22:07:01.863Z,10.20
2018-06-11T22:09:30.213Z,10.43
2018-06-11T22:11:58.554Z,12.40
2018-06-11T22:14:26.887Z,12.37
2018-06-11T22:16:55.231Z,10.77
2018-06-11T22:19:23.569Z,11.87
2018-06-11T22:21:52.015Z,11.50
2018-06-11T22:24:20.360Z,14.70
2018-06-11T22:26:48.710Z,15.40
2018-06-11T22:29:17.047Z,12.67
2018-06-11T22:31:45.415Z,13.27
2018-06-11T22:34:13.743Z,11.67
2018-06-11T22:36:42.091Z,12.43
2018-06-11T22:39:10.411Z,13.67
2018-06-11T22:41:38.794Z,12.97
2018-06-11T22:44:07.119Z,12.20
2018-06-11T22:46:35.459Z,11.33
2018-06-11T22:49:03.794Z,12.80
2018-06-11T22:51:32.115Z,16.37
2018-06-11T22:54:00.463Z,17.57
2018-06-11T22:56:28.783Z,11.73
2018-06-11T22:58:57.128Z,12.37
2018-06-11T23:01:25.448Z,13.00
2018-06-11T23:03:53.783Z,12.17
2018-06-11T23:06:22.099Z,12.00
2018-06-11T23:08:50.431Z,12.47
2018-06-11T23:11:18.748Z,12.53
2018-06-11T23:13:47.332Z,12.77
2018-06-11T23:16:15.660Z,12.80
2018-06-11T23:18:44.019Z,17.40
2018-06-11T23:21:12.331Z,13.00
2018-06-11T23:23:40.406Z,12.40
2018-06-11T23:26:08.723Z,12.80
2018-06-11T23:28:37.051Z,13.73
2018-06-11T23:31:05.472Z,14.73
2018-06-11T23:33:33.817Z,13.87
2018-06-11T23:36:02.139Z,13.13
2018-06-11T23:38:30.491Z,14.60
2018-06-11T23:40:58.815Z,18.07
2018-06-11T23:43:28.010Z,14.67
2018-06-11T23:45:56.379Z,15.10
2018-06-11T23:48:24.739Z,17.47
2018-06-11T23:50:53.062Z,12.47
2018-06-11T23:53:21.411Z,16.13
2018-06-11T23:55:49.743Z,17.20
2018-06-11T23:58:18.091Z,14.30
